Time;durP1;ratioP1;P1;durP2;ratioP2;P2;SDS_P1;SDS_P2;PMS_P1;PMS_P2;Temp;Humidity;BMP_temperature;BMP_pressure;BME280_temperature;BME280_humidity;BME280_pressure;Samples;Min_cycle;Max_cycle;Signal;HPM_P1;HPM_P2
2022/07/02 18:36:07;;;;;;;;;;;;;;;14.54;82.28;99665.28;6204093;22;2172090;31
2022/07/02 18:41:34;;;;;;;;;;;;;;;14.15;81.51;99669.41;6191630;22;19924;-93
2022/07/02 18:44:02;;;;;;;;;;;;;;;14.32;81.17;99676.38;6192304;23;19916;-94
2022/07/02 18:46:28;;;;;;;;;;;;;;;13.52;79.51;99668.59;6193188;23;20006;-93
2022/07/02 18:48:56;;;;;;;;;;;;;;;13.97;81.49;99672.19;6177541;22;19921;-96
2022/07/02 18:56:45;;;;;;;;;;;;;;;13.96;81.96;99682.94;6254245;22;19912;-93
2022/07/02 18:59:11;;;;;;;;;;;;;;;13.67;80.06;99679.31;6254617;23;19923;-94
2022/07/02 19:01:36;;;;;;;;;;;;;;;13.60;81.60;99679.66;6253154;23;19912;-92
2022/07/02 19:09:54;;;;;;;;;;;;;;;13.88;83.96;99678.09;6277158;22;20394;-96
2022/07/02 19:12:19;;;;;;;;;;;;;;;14.04;84.00;99677.16;6253294;23;19916;-95
2022/07/02 19:17:37;;;;;;;;;;;;;;;13.93;85.51;99678.66;6280852;22;20507;-90
2022/07/02 19:20:36;;;;;;;;;;;;;;;;;;;;;
2022/07/02 19:33:55;;;;;;;;;;;;;;;15.12;81.64;99673.31;6312039;22;19919;-92
2022/07/02 19:45:06;;;;;;;;;;;;;;;14.54;89.11;99665.28;6275255;22;19926;-90
2022/07/02 19:47:37;;;;;;;;;;;;;;;14.20;87.02;99672.66;6248149;22;19968;-90
2022/07/02 19:50:02;;;;;;;;;;;;;;;14.47;90.08;99674.59;6249469;22;19941;-89
2022/07/02 19:52:28;;;;;;;;;;;;;;;14.82;90.71;99674.28;6250021;22;19911;-89
2022/07/02 19:54:53;;;;;;;;;;;;;;;14.21;89.08;99673.50;6249542;22;19911;-91
2022/07/02 19:57:25;;;;;;;;;;;;;;;14.56;91.76;99670.53;6276325;22;19946;-89
2022/07/02 20:02:32;;;;;;;;;;;;;;;14.35;92.09;99674.38;6275153;22;19923;-89
2022/07/02 20:05:00;;;;;;;;;;;;;;;14.59;94.84;99679.19;6276542;22;20136;-93
2022/07/02 20:07:26;;;;;;;;;;;;;;;14.09;93.19;99680.44;6274930;22;19955;-90
2022/07/02 20:09:53;;;;;;;;;;;;;;;14.45;95.69;99680.03;6275322;22;19911;-91
2022/07/02 20:12:29;;;;;;;;;;;;;;;14.66;97.45;99685.03;6274914;22;19922;-90
2022/07/02 20:17:36;;;;;;;;;;;;;;;;;;;;;
2022/07/02 20:20:08;;;;;;;;;;;;;;;14.42;95.75;99696.19;6255890;22;19983;-90
2022/07/02 20:22:33;;;;;;;;;;;;;;;14.50;96.86;99695.75;6275595;22;19961;-90
2022/07/02 20:24:58;;;;;;;;;;;;;;;14.75;97.89;99694.28;6274561;22;20258;-92
2022/07/02 20:27:26;;;;;;;;;;;;;;;14.22;95.74;99692.06;6240565;22;20638;-88
2022/07/02 20:29:57;;;;;;;;;;;;;;;14.62;97.85;99695.03;6269137;22;19923;-89
2022/07/02 20:32:56;;;;;;;;;;;;;;;14.62;97.20;99695.03;6273894;22;19926;-89
2022/07/02 20:35:24;;;;;;;;;;;;;;;14.57;97.37;99691.75;6278949;22;19926;-90
2022/07/02 20:37:49;;;;;;;;;;;;;;;14.90;98.04;99701.31;6279064;22;19915;-90
2022/07/02 20:40:17;;;;;;;;;;;;;;;14.41;95.58;99704.28;6279936;22;19922;-90
2022/07/02 20:43:21;;;;;;;;;;;;;;;;;;;;;
2022/07/02 20:45:55;;;;;;;;;;;;;;;14.48;95.88;99697.66;6262162;22;20002;-90
2022/07/02 20:51:10;;;;;;;;;;;;;;;14.86;97.91;99697.16;6257295;22;19919;-91
2022/07/02 20:53:36;;;;;;;;;;;;;;;14.55;96.23;99704.34;6249293;22;19915;-92
2022/07/02 21:01:12;;;;;;;;;;;;;;;14.71;97.56;99709.63;6276423;22;19950;-90
2022/07/02 21:06:18;;;;;;;;;;;;;;;14.62;96.41;99712.84;6262520;22;19928;-91
2022/07/02 21:08:46;;;;;;;;;;;;;;;14.94;98.20;99718.88;6249222;22;19919;-90
2022/07/02 21:11:11;;;;;;;;;;;;;;;14.49;96.43;99715.38;6248551;22;19989;-92
2022/07/02 21:16:42;;;;;;;;;;;;;;;14.72;98.55;99716.66;6151033;23;19995;-89
2022/07/02 21:24:42;;;;;;;;;;;;;;;14.41;97.71;99713.16;6273652;22;19924;-88
2022/07/02 21:30:12;;;;;;;;;;;;;;;14.48;97.07;99721.63;6306776;22;20337;-88
2022/07/02 21:32:38;;;;;;;;;;;;;;;14.76;98.16;99720.00;6278194;22;19915;-89
2022/07/02 21:38:15;;;;;;;;;;;;;;;14.46;98.06;99726.22;6240695;22;19927;-91
2022/07/02 21:40:41;;;;;;;;;;;;;;;14.88;99.77;99717.41;6241526;23;19950;-90
2022/07/02 21:49:10;;;;;;;;;;;;;;;14.67;96.60;99719.59;6240727;22;19922;-88
2022/07/02 21:52:11;;;;;;;;;;;;;;;;;;;;;
2022/07/02 21:54:39;;;;;;;;;;;;;;;15.10;98.09;99717.91;6275631;22;20276;-88
2022/07/02 21:57:04;;;;;;;;;;;;;;;14.75;96.30;99724.47;6274086;22;19947;-90
2022/07/02 21:59:30;;;;;;;;;;;;;;;15.05;98.72;99728.88;6274407;22;19939;-88
2022/07/02 22:01:57;;;;;;;;;;;;;;;14.67;97.05;99732.94;6274829;22;19911;-88
2022/07/02 22:04:22;;;;;;;;;;;;;;;14.97;97.54;99729.34;6275717;22;20347;-88
2022/07/02 22:06:47;;;;;;;;;;;;;;;15.16;99.23;99737.06;6274743;22;19912;-88
2022/07/02 22:09:13;;;;;;;;;;;;;;;14.60;97.25;99728.94;6273752;22;19943;-87
2022/07/02 22:11:38;;;;;;;;;;;;;;;15.04;98.81;99727.16;6273904;22;19922;-88
2022/07/02 22:14:03;;;;;;;;;;;;;;;15.10;99.50;99731.25;6276718;22;19934;-90
2022/07/02 22:16:29;;;;;;;;;;;;;;;14.79;97.79;99727.81;6273462;22;19911;-94
2022/07/02 22:18:54;;;;;;;;;;;;;;;14.97;99.68;99732.00;6279142;22;19965;-95
2022/07/02 22:21:19;;;;;;;;;;;;;;;14.79;97.94;99734.00;6280535;22;19911;-92
2022/07/02 22:23:44;;;;;;;;;;;;;;;14.88;98.02;99728.09;6281935;22;20329;-93
2022/07/02 22:26:10;;;;;;;;;;;;;;;15.11;99.77;99738.28;6278324;22;19911;-91
2022/07/02 22:28:38;;;;;;;;;;;;;;;14.62;97.10;99736.84;6276984;22;20366;-92
2022/07/02 22:31:03;;;;;;;;;;;;;;;15.08;98.42;99736.69;6277769;22;19937;-90
2022/07/02 22:33:29;;;;;;;;;;;;;;;15.12;99.30;99734.69;6278554;22;20335;-95
2022/07/02 22:38:26;;;;;;;;;;;;;;;15.16;98.87;99736.22;6274274;22;19931;-87
2022/07/02 22:41:09;;;;;;;;;;;;;;;14.80;97.12;99742.88;6274262;22;20235;-86
2022/07/02 22:46:34;;;;;;;;;;;;;;;15.21;98.39;99747.44;6274232;22;19938;-89
2022/07/02 22:55:59;;;;;;;;;;;;;;;14.92;96.08;99739.44;6257297;22;19969;-88
2022/07/02 22:58:45;;;;;;;;;;;;;;;15.32;98.32;99725.44;6273502;22;19911;-88
2022/07/02 23:01:20;;;;;;;;;;;;;;;14.77;96.13;99724.38;6273469;22;20003;-89
2022/07/02 23:09:26;;;;;;;;;;;;;;;15.12;97.37;99732.00;6268479;22;20259;-88
2022/07/02 23:11:53;;;;;;;;;;;;;;;15.20;97.39;99738.56;6274844;22;19937;-89
2022/07/02 23:14:19;;;;;;;;;;;;;;;14.88;96.02;99738.75;6275097;22;19918;-88
2022/07/02 23:16:44;;;;;;;;;;;;;;;15.19;97.83;99744.00;6273515;22;20291;-89
2022/07/02 23:19:10;;;;;;;;;;;;;;;14.70;96.07;99751.41;6274874;22;20323;-89
2022/07/02 23:21:36;;;;;;;;;;;;;;;14.97;97.04;99748.03;6276815;22;19915;-86
2022/07/02 23:24:02;;;;;;;;;;;;;;;15.21;98.45;99742.13;6275348;22;19919;-87
2022/07/02 23:26:30;;;;;;;;;;;;;;;14.65;95.71;99745.50;6275029;22;19915;-87
2022/07/02 23:29:11;;;;;;;;;;;;;;;;;;;;;
2022/07/02 23:31:36;;;;;;;;;;;;;;;14.82;97.08;99749.84;6274112;22;19990;-89
2022/07/02 23:34:11;;;;;;;;;;;;;;;;;;;;;
2022/07/02 23:36:58;;;;;;;;;;;;;;;15.31;97.81;99734.38;6276297;22;19990;-87
2022/07/02 23:39:24;;;;;;;;;;;;;;;14.66;95.22;99744.56;6274676;22;19911;-95
2022/07/02 23:41:49;;;;;;;;;;;;;;;15.03;97.29;99744.97;6274303;22;19922;-87
